Time;durP1;ratioP1;P1;durP2;ratioP2;P2;SDS_P1;SDS_P2;PMS_P1;PMS_P2;Temp;Humidity;BMP_temperature;BMP_pressure;BME280_temperature;BME280_humidity;BME280_pressure;Samples;Min_cycle;Max_cycle;Signal;HPM_P1;HPM_P2
2023/09/05 00:12:23;;;;;;;4.15;2.63;;;13.30;99.90;;;;;;8268437;28;20030;-80
2023/09/05 00:16:23;;;;;;;3.80;2.60;;;13.30;99.90;;;;;;8250615;28;20616;-81
2023/09/05 00:20:25;;;;;;;5.40;2.67;;;13.40;99.90;;;;;;8250490;28;20022;-80
2023/09/05 00:24:38;;;;;;;3.42;2.58;;;13.40;99.90;;;;;;8250458;28;20023;-81
2023/09/05 00:28:38;;;;;;;4.75;2.80;;;13.20;99.90;;;;;;8250474;28;20106;-79
2023/09/05 00:32:40;;;;;;;3.63;2.28;;;13.10;99.90;;;;;;8250695;28;20034;-81
2023/09/05 00:36:42;;;;;;;3.45;2.55;;;13.10;99.90;;;;;;8250893;28;20061;-81
2023/09/05 00:40:43;;;;;;;4.47;2.58;;;13.00;99.90;;;;;;8268132;28;20029;-81
2023/09/05 00:44:47;;;;;;;3.72;2.50;;;13.00;99.90;;;;;;8251191;28;20053;-82
2023/09/05 00:48:48;;;;;;;4.65;2.50;;;13.00;99.90;;;;;;8251053;28;20019;-81
2023/09/05 00:52:48;;;;;;;3.65;2.35;;;13.10;99.90;;;;;;8250600;28;20113;-80
2023/09/05 00:56:49;;;;;;;4.40;2.42;;;13.10;99.90;;;;;;8250468;28;20022;-80
2023/09/05 01:00:50;;;;;;;3.20;2.40;;;13.30;99.90;;;;;;8262339;28;20023;-80
2023/09/05 01:04:50;;;;;;;3.72;2.17;;;13.20;99.90;;;;;;8249333;28;20030;-79
2023/09/05 01:09:18;;;;;;;3.35;2.33;;;13.20;99.90;;;;;;8250104;28;20095;-81
2023/09/05 01:13:27;;;;;;;5.85;2.60;;;13.20;99.90;;;;;;8219174;28;20093;-82
2023/09/05 01:17:27;;;;;;;3.80;2.40;;;13.00;99.90;;;;;;8247267;28;20041;-81
2023/09/05 01:21:40;;;;;;;3.53;2.25;;;13.10;99.90;;;;;;8249604;28;20027;-81
2023/09/05 01:25:42;;;;;;;3.40;2.20;;;13.10;99.90;;;;;;8267699;28;20118;-82
2023/09/05 01:29:43;;;;;;;6.20;2.50;;;13.00;99.90;;;;;;8268172;28;20033;-81
2023/09/05 01:33:44;;;;;;;5.65;2.53;;;12.80;99.90;;;;;;8267723;28;20029;-82
2023/09/05 01:37:44;;;;;;;5.10;2.40;;;12.70;99.90;;;;;;8250065;28;20058;-81
2023/09/05 01:49:58;;;;;;;3.80;2.38;;;12.70;99.90;;;;;;8215803;28;20214;-81
2023/09/05 01:53:59;;;;;;;4.85;2.47;;;12.60;99.90;;;;;;8190876;28;20027;-79
2023/09/05 01:57:59;;;;;;;5.03;2.65;;;12.60;99.90;;;;;;8175607;29;20086;-80
2023/09/05 02:06:03;;;;;;;3.63;2.42;;;12.30;99.90;;;;;;8165391;29;20130;-78
2023/09/05 02:10:05;;;;;;;4.20;2.80;;;12.10;99.90;;;;;;8166715;29;20023;-78
2023/09/05 02:14:06;;;;;;;5.97;2.30;;;11.80;99.90;;;;;;8165832;29;20063;-78
2023/09/05 02:18:10;;;;;;;3.15;2.28;;;11.60;99.90;;;;;;8172120;29;20024;-78
2023/09/05 02:22:11;;;;;;;3.97;2.53;;;11.30;99.90;;;;;;8172215;29;20038;-78
2023/09/05 02:31:19;;;;;;;3.72;2.50;;;11.10;99.90;;;;;;8195000;28;20057;-78
2023/09/05 02:35:27;;;;;;;3.75;2.60;;;11.10;99.90;;;;;;8213875;28;20486;-78
2023/09/05 02:39:27;;;;;;;4.03;2.65;;;10.90;99.90;;;;;;8213544;28;20050;-78
2023/09/05 02:43:28;;;;;;;4.30;2.78;;;10.90;99.90;;;;;;8224664;28;20037;-78
2023/09/05 02:47:28;;;;;;;4.22;2.97;;;11.00;99.90;;;;;;8218811;28;20501;-78
2023/09/05 02:51:29;;;;;;;4.32;2.67;;;10.90;99.90;;;;;;8222175;28;20034;-78
2023/09/05 02:55:29;;;;;;;4.47;2.80;;;10.80;99.90;;;;;;8221580;28;20019;-79
2023/09/05 02:59:30;;;;;;;4.43;2.63;;;10.90;99.90;;;;;;8222233;28;20487;-78
2023/09/05 03:03:31;;;;;;;3.83;2.60;;;10.90;99.90;;;;;;8212088;28;20031;-78
2023/09/05 03:07:32;;;;;;;3.75;2.78;;;10.90;99.90;;;;;;8218778;28;20113;-78
2023/09/05 03:11:32;;;;;;;4.03;2.83;;;10.90;99.90;;;;;;8218419;28;20031;-78
2023/09/05 03:15:33;;;;;;;6.15;2.35;;;10.80;99.90;;;;;;8212759;28;20403;-78
2023/09/05 03:19:33;;;;;;;6.82;3.17;;;10.70;99.90;;;;;;8217788;28;20033;-78
2023/09/05 03:23:35;;;;;;;6.72;2.65;;;10.50;99.90;;;;;;8200993;28;20082;-78
2023/09/05 03:27:36;;;;;;;5.45;3.50;;;10.40;99.90;;;;;;8212838;28;20544;-78
2023/09/05 03:31:37;;;;;;;3.70;2.88;;;10.30;99.90;;;;;;8207975;28;20090;-77
2023/09/05 03:35:37;;;;;;;4.28;2.97;;;10.30;99.90;;;;;;8210291;28;20020;-78
2023/09/05 03:39:38;;;;;;;4.97;3.22;;;10.20;99.90;;;;;;8208639;28;20087;-78
2023/09/05 03:43:38;;;;;;;4.47;2.97;;;10.20;99.90;;;;;;8214778;28;20501;-78
2023/09/05 03:47:39;;;;;;;4.38;2.97;;;10.20;99.90;;;;;;8202676;28;20038;-78
2023/09/05 03:51:39;;;;;;;6.47;3.55;;;10.20;99.90;;;;;;8236192;28;20053;-78
2023/09/05 03:55:40;;;;;;;5.50;3.63;;;10.10;99.90;;;;;;8223068;28;20027;-78
2023/09/05 03:59:40;;;;;;;5.60;3.30;;;10.10;99.90;;;;;;8220561;28;20027;-79
2023/09/05 04:03:41;;;;;;;4.63;3.45;;;10.10;99.90;;;;;;8207904;28;20128;-78
2023/09/05 04:07:42;;;;;;;4.53;3.53;;;10.10;99.90;;;;;;8219895;28;20111;-78
2023/09/05 04:11:42;;;;;;;4.85;3.70;;;10.20;99.90;;;;;;8218622;28;20039;-78
2023/09/05 04:15:43;;;;;;;5.75;3.50;;;10.30;99.90;;;;;;8216295;28;20058;-78
2023/09/05 04:19:43;;;;;;;5.43;3.40;;;10.40;99.90;;;;;;8205260;28;20019;-78
2023/09/05 04:23:45;;;;;;;6.13;3.75;;;10.60;99.90;;;;;;8210335;28;20118;-78
2023/09/05 04:27:45;;;;;;;4.50;3.10;;;10.70;99.90;;;;;;8219495;28;20019;-78
2023/09/05 04:31:46;;;;;;;8.07;3.38;;;10.40;99.90;;;;;;8215177;28;20031;-78
2023/09/05 04:35:46;;;;;;;3.47;2.95;;;10.20;99.90;;;;;;8210486;28;20070;-78
2023/09/05 04:39:47;;;;;;;6.65;3.92;;;10.10;99.90;;;;;;8199266;28;20031;-78
2023/09/05 04:43:47;;;;;;;5.80;4.00;;;10.10;99.90;;;;;;8203448;28;20028;-78
2023/09/05 04:47:48;;;;;;;7.80;4.00;;;10.00;99.90;;;;;;8212393;28;20059;-78
2023/09/05 04:51:48;;;;;;;6.80;3.80;;;10.20;99.90;;;;;;8226023;28;20023;-78
2023/09/05 04:55:51;;;;;;;5.80;4.07;;;10.40;99.90;;;;;;8222222;28;20316;-78
2023/09/05 04:59:59;;;;;;;8.60;3.83;;;10.50;99.90;;;;;;8216546;28;20023;-78
2023/09/05 05:03:59;;;;;;;5.78;3.78;;;10.60;99.90;;;;;;8211309;28;20042;-78
2023/09/05 05:08:00;;;;;;;4.22;3.08;;;10.90;99.90;;;;;;8208735;28;20018;-78
2023/09/05 05:12:01;;;;;;;4.90;3.40;;;11.00;99.90;;;;;;8214685;28;20082;-78
2023/09/05 05:16:01;;;;;;;4.40;3.05;;;10.80;99.90;;;;;;8214331;28;20023;-79
2023/09/05 05:20:05;;;;;;;4.82;3.78;;;10.80;99.90;;;;;;8207557;28;20034;-77
2023/09/05 05:24:06;;;;;;;5.53;3.97;;;10.70;99.90;;;;;;8203314;28;20082;-78
2023/09/05 05:28:07;;;;;;;5.38;3.90;;;10.70;99.90;;;;;;8217096;28;20019;-78
2023/09/05 05:32:07;;;;;;;6.95;3.85;;;10.80;99.90;;;;;;8207624;28;20023;-78
2023/09/05 05:36:08;;;;;;;7.22;3.63;;;11.10;99.90;;;;;;8220427;28;20082;-78
2023/09/05 05:40:13;;;;;;;5.30;3.45;;;11.40;99.90;;;;;;8214978;28;20038;-78
2023/09/05 05:44:13;;;;;;;5.68;3.80;;;11.50;99.90;;;;;;8207399;28;20491;-78
2023/09/05 05:48:14;;;;;;;18.10;4.68;;;11.50;99.90;;;;;;8201745;28;20396;-78
2023/09/05 05:52:14;;;;;;;7.20;4.32;;;11.70;99.90;;;;;;8210367;28;20395;-78
2023/09/05 05:56:15;;;;;;;6.15;3.55;;;11.70;99.90;;;;;;8210065;28;20031;-78
2023/09/05 06:00:16;;;;;;;5.78;3.58;;;12.00;99.90;;;;;;8204202;28;20030;-78
2023/09/05 06:04:16;;;;;;;5.55;3.53;;;12.40;99.90;;;;;;8213363;28;20602;-78
2023/09/05 06:08:17;;;;;;;4.68;3.05;;;13.00;99.90;;;;;;8207075;28;20023;-77
2023/09/05 06:12:18;;;;;;;6.80;3.60;;;13.30;99.90;;;;;;8206386;28;20046;-78
2023/09/05 06:16:20;;;;;;;6.68;3.80;;;13.40;99.90;;;;;;8205952;28;20037;-78
2023/09/05 06:20:20;;;;;;;5.68;3.67;;;13.60;99.90;;;;;;8206099;28;20390;-78
2023/09/05 06:24:22;;;;;;;4.03;3.30;;;13.80;99.90;;;;;;8211576;28;20046;-78
2023/09/05 06:28:22;;;;;;;4.95;3.50;;;13.90;99.90;;;;;;8200450;28;20016;-78
2023/09/05 06:32:23;;;;;;;4.90;3.35;;;14.30;99.90;;;;;;8212859;28;20034;-78
2023/09/05 06:36:23;;;;;;;5.63;2.92;;;14.40;99.90;;;;;;8215793;28;20494;-78
2023/09/05 06:40:25;;;;;;;4.10;2.85;;;14.60;99.90;;;;;;8207518;28;20102;-78
2023/09/05 06:44:29;;;;;;;3.70;3.10;;;14.80;99.90;;;;;;8206421;28;20020;-78
2023/09/05 06:48:29;;;;;;;4.65;3.38;;;14.90;99.90;;;;;;8209201;28;20023;-78
2023/09/05 06:52:33;;;;;;;4.20;3.28;;;15.20;99.90;;;;;;8203294;28;20031;-79
2023/09/05 06:56:33;;;;;;;4.07;3.20;;;15.20;99.90;;;;;;8208765;28;20058;-77
2023/09/05 07:00:34;;;;;;;4.38;3.08;;;15.50;99.90;;;;;;8209015;28;20023;-78
2023/09/05 07:04:36;;;;;;;5.47;3.30;;;15.60;99.90;;;;;;8210135;28;20031;-78
2023/09/05 07:08:37;;;;;;;5.53;3.55;;;15.70;99.90;;;;;;8205530;28;20063;-78
2023/09/05 07:12:38;;;;;;;4.63;3.00;;;15.80;99.90;;;;;;8204009;28;20019;-79
2023/09/05 07:16:38;;;;;;;4.20;3.15;;;16.10;99.90;;;;;;8218471;28;20075;-79
2023/09/05 07:20:39;;;;;;;4.05;2.88;;;16.30;99.90;;;;;;8205723;28;20024;-79
2023/09/05 07:24:40;;;;;;;4.25;2.80;;;16.20;99.90;;;;;;8215899;28;20023;-80
2023/09/05 07:28:40;;;;;;;4.47;3.00;;;16.40;99.90;;;;;;8219890;28;20092;-78
2023/09/05 07:32:41;;;;;;;3.83;2.83;;;16.90;99.90;;;;;;8219716;28;20487;-79
2023/09/05 07:36:41;;;;;;;15.98;4.13;;;17.10;99.90;;;;;;8237551;28;20382;-78
2023/09/05 07:40:42;;;;;;;5.95;2.88;;;17.20;99.90;;;;;;8202775;28;20012;-78
2023/09/05 07:44:42;;;;;;;5.43;2.83;;;17.60;99.90;;;;;;8211066;28;20047;-79
2023/09/05 07:48:43;;;;;;;3.92;2.90;;;18.10;99.90;;;;;;8208665;28;20498;-80
2023/09/05 07:52:43;;;;;;;5.47;3.03;;;18.40;99.90;;;;;;8199764;28;20031;-78
2023/09/05 07:56:44;;;;;;;9.32;2.88;;;18.90;99.90;;;;;;8199824;28;20027;-79
2023/09/05 08:04:50;;;;;;;4.32;2.83;;;19.80;99.90;;;;;;8235237;28;20061;-82
2023/09/05 08:08:50;;;;;;;4.18;3.10;;;20.30;99.90;;;;;;8235647;28;20471;-82
2023/09/05 08:12:51;;;;;;;3.03;2.50;;;20.50;99.90;;;;;;8250449;28;20029;-85
2023/09/05 08:16:52;;;;;;;14.60;3.45;;;21.10;99.90;;;;;;8243517;28;20409;-82
2023/09/05 08:20:56;;;;;;;5.57;2.95;;;21.80;99.90;;;;;;8243606;28;20023;-85
2023/09/05 08:24:56;;;;;;;3.20;2.70;;;21.90;99.90;;;;;;8244621;28;20478;-85
2023/09/05 08:28:57;;;;;;;4.75;2.60;;;21.80;99.90;;;;;;8245855;28;20114;-82
2023/09/05 08:33:01;;;;;;;5.15;2.67;;;22.20;99.90;;;;;;8247544;28;20019;-83
2023/09/05 08:37:01;;;;;;;3.00;2.70;;;22.90;99.90;;;;;;8246006;28;20037;-84
2023/09/05 08:41:02;;;;;;;4.38;2.80;;;23.10;99.90;;;;;;8255835;28;20030;-83
2023/09/05 08:45:04;;;;;;;3.45;2.22;;;23.20;99.90;;;;;;8246541;28;20050;-83
2023/09/05 08:49:04;;;;;;;5.22;2.63;;;23.30;99.90;;;;;;8255889;28;20022;-82
2023/09/05 08:53:14;;;;;;;5.35;2.70;;;23.40;99.90;;;;;;8245715;28;20027;-82
2023/09/05 08:57:17;;;;;;;3.08;2.47;;;23.00;99.90;;;;;;8248831;28;20084;-82
2023/09/05 09:01:19;;;;;;;3.67;2.25;;;22.80;99.90;;;;;;8249599;28;20026;-82
2023/09/05 09:05:20;;;;;;;4.05;2.30;;;22.90;99.90;;;;;;8245531;28;20018;-84
2023/09/05 09:09:34;;;;;;;3.53;2.70;;;23.10;99.90;;;;;;8255142;28;20429;-82
2023/09/05 09:13:37;;;;;;;3.40;2.47;;;23.30;99.90;;;;;;8246744;28;20022;-82
2023/09/05 09:17:42;;;;;;;3.20;2.58;;;23.50;99.90;;;;;;8234769;28;20372;-84
2023/09/05 09:21:43;;;;;;;4.70;2.75;;;23.80;99.90;;;;;;8229776;28;20510;-82
2023/09/05 09:25:47;;;;;;;4.15;2.65;;;24.10;99.90;;;;;;8235829;28;20050;-83
2023/09/05 09:29:55;;;;;;;5.22;2.50;;;24.30;99.90;;;;;;8245376;28;20054;-82
2023/09/05 09:33:56;;;;;;;12.13;3.15;;;23.90;99.90;;;;;;8244586;28;20395;-82
2023/09/05 09:37:57;;;;;;;6.57;2.85;;;23.90;99.90;;;;;;8240647;28;20026;-82
2023/09/05 09:42:00;;;;;;;8.20;2.97;;;23.80;99.90;;;;;;8227059;28;20065;-84
2023/09/05 09:46:05;;;;;;;4.25;2.55;;;23.70;99.90;;;;;;8235118;28;20028;-83
2023/09/05 09:50:07;;;;;;;4.07;3.08;;;23.60;99.90;;;;;;8238547;28;20019;-82
2023/09/05 09:54:11;;;;;;;5.05;2.70;;;24.10;99.90;;;;;;8253276;28;20296;-82
2023/09/05 09:58:14;;;;;;;3.90;2.70;;;24.60;99.90;;;;;;8252858;28;20030;-82
2023/09/05 10:02:15;;;;;;;4.50;2.53;;;24.40;99.90;;;;;;8212601;28;1049079;-82
2023/09/05 10:06:17;;;;;;;3.90;2.40;;;24.10;99.90;;;;;;8237919;28;20398;-83
2023/09/05 10:10:18;;;;;;;3.00;2.50;;;24.40;99.90;;;;;;8246887;28;20019;-81
2023/09/05 10:14:20;;;;;;;2.45;2.20;;;24.30;99.90;;;;;;8242868;28;20057;-84
2023/09/05 10:18:22;;;;;;;4.25;2.42;;;24.40;99.90;;;;;;8241002;28;20026;-82
2023/09/05 10:22:24;;;;;;;2.72;2.35;;;24.70;99.90;;;;;;8247078;28;20054;-83
2023/09/05 10:26:25;;;;;;;3.83;2.30;;;25.30;99.90;;;;;;8248861;28;20018;-82
2023/09/05 10:30:27;;;;;;;2.58;2.30;;;26.70;99.90;;;;;;8243084;28;20430;-84
2023/09/05 10:34:50;;;;;;;2.63;2.17;;;27.40;99.90;;;;;;8243632;28;20027;-83
2023/09/05 10:38:55;;;;;;;5.85;2.40;;;27.70;99.90;;;;;;8248626;28;20154;-83
2023/09/05 10:42:56;;;;;;;3.95;2.13;;;27.70;99.90;;;;;;8241133;28;20054;-83
2023/09/05 10:47:27;;;;;;;3.53;2.30;;;27.40;99.90;;;;;;8244816;28;20030;-82
2023/09/05 10:51:28;;;;;;;4.80;2.33;;;27.70;99.90;;;;;;8229289;28;20034;-83
2023/09/05 10:55:39;;;;;;;4.35;2.40;;;28.10;99.90;;;;;;8243987;28;20030;-82
2023/09/05 10:59:43;;;;;;;4.07;2.40;;;27.70;99.90;;;;;;8242065;28;20022;-83
2023/09/05 11:03:44;;;;;;;3.72;2.10;;;27.70;99.90;;;;;;8242499;28;20030;-82
2023/09/05 11:07:45;;;;;;;4.05;2.45;;;27.60;99.90;;;;;;8246488;28;20445;-82
2023/09/05 11:11:46;;;;;;;2.50;1.88;;;27.50;99.90;;;;;;8234739;28;20158;-83
2023/09/05 11:15:46;;;;;;;3.50;2.42;;;27.50;99.90;;;;;;8229537;28;20086;-85
2023/09/05 11:19:51;;;;;;;3.72;1.90;;;28.10;99.90;;;;;;8250330;28;20125;-83
2023/09/05 11:23:55;;;;;;;9.00;2.60;;;28.90;99.90;;;;;;8249787;28;20100;-83
2023/09/05 11:27:59;;;;;;;2.28;1.83;;;29.60;99.90;;;;;;8250239;28;20479;-83
2023/09/05 11:32:00;;;;;;;2.70;2.10;;;31.10;96.90;;;;;;8243133;28;20441;-83
2023/09/05 11:36:04;;;;;;;3.03;2.10;;;31.30;95.40;;;;;;8245521;28;20096;-83
2023/09/05 11:40:11;;;;;;;2.80;2.13;;;30.80;93.90;;;;;;8246190;28;20022;-83
2023/09/05 11:44:11;;;;;;;3.90;1.70;;;30.80;94.00;;;;;;8231613;28;20055;-83
2023/09/05 11:48:14;;;;;;;3.88;1.90;;;31.30;92.80;;;;;;8235545;28;20433;-83
2023/09/05 11:52:16;;;;;;;2.35;1.80;;;31.70;92.20;;;;;;8250283;28;20499;-84
2023/09/05 11:56:17;;;;;;;3.42;1.98;;;31.60;90.80;;;;;;8243557;28;20031;-84
2023/09/05 12:00:23;;;;;;;2.45;1.70;;;31.20;88.60;;;;;;8243790;28;20026;-83
2023/09/05 12:04:24;;;;;;;13.43;2.83;;;31.90;88.10;;;;;;8250319;28;20031;-84
2023/09/05 12:08:24;;;;;;;3.22;2.13;;;32.20;88.00;;;;;;8238126;28;20047;-82
2023/09/05 12:12:25;;;;;;;4.03;2.00;;;32.20;90.70;;;;;;8239778;28;20023;-84
2023/09/05 12:16:25;;;;;;;2.42;1.80;;;31.90;90.60;;;;;;8230687;28;20078;-84
2023/09/05 12:20:27;;;;;;;7.00;1.98;;;31.90;85.90;;;;;;8230648;28;20134;-83
2023/09/05 12:24:29;;;;;;;2.47;1.70;;;31.50;87.70;;;;;;8230319;28;20110;-83
2023/09/05 12:28:30;;;;;;;5.65;1.67;;;32.80;82.00;;;;;;8224275;28;20019;-83
2023/09/05 12:32:31;;;;;;;1.92;1.45;;;31.70;84.60;;;;;;8238410;28;20517;-83
2023/09/05 12:36:33;;;;;;;2.30;1.70;;;31.70;83.70;;;;;;8238026;28;20029;-84
2023/09/05 12:40:34;;;;;;;2.60;1.70;;;32.30;84.10;;;;;;8250592;28;20379;-84
2023/09/05 12:44:34;;;;;;;5.28;1.60;;;34.00;79.70;;;;;;8236970;28;20320;-84
2023/09/05 12:48:35;;;;;;;5.80;1.83;;;35.40;74.30;;;;;;8230668;28;20097;-84
2023/09/05 12:52:35;;;;;;;2.65;1.52;;;35.20;74.60;;;;;;8230950;28;20019;-84
2023/09/05 12:56:36;;;;;;;3.40;1.70;;;32.80;78.10;;;;;;8223491;28;20031;-85
2023/09/05 13:00:37;;;;;;;20.67;2.20;;;32.70;81.80;;;;;;8216631;28;20039;-83
2023/09/05 13:04:37;;;;;;;7.93;1.70;;;33.30;75.30;;;;;;8262259;28;20033;-83
2023/09/05 13:08:38;;;;;;;2.40;1.70;;;34.30;76.30;;;;;;8242240;28;20026;-85
2023/09/05 13:12:38;;;;;;;1.83;1.63;;;33.70;78.00;;;;;;8237756;28;20022;-83
2023/09/05 13:16:39;;;;;;;2.30;1.58;;;35.40;67.40;;;;;;8245822;28;20019;-84
2023/09/05 13:20:39;;;;;;;2.85;1.50;;;35.40;67.30;;;;;;8249969;28;20027;-84
2023/09/05 13:24:42;;;;;;;1.30;1.17;;;35.00;65.40;;;;;;8235357;28;20113;-83
2023/09/05 13:28:42;;;;;;;1.50;1.40;;;35.90;65.00;;;;;;8246575;28;20057;-84
2023/09/05 13:32:43;;;;;;;2.30;1.50;;;36.40;63.90;;;;;;8256672;28;20030;-84
2023/09/05 13:36:44;;;;;;;2.40;1.73;;;36.80;62.00;;;;;;8230008;28;20103;-83
2023/09/05 13:40:44;;;;;;;4.72;1.58;;;36.30;61.00;;;;;;8218154;28;20495;-83
2023/09/05 13:44:45;;;;;;;6.13;1.60;;;34.70;64.60;;;;;;8222786;28;20031;-84
2023/09/05 13:48:47;;;;;;;1.80;1.40;;;33.00;69.90;;;;;;8222972;28;20050;-83
2023/09/05 13:52:48;;;;;;;1.90;1.13;;;33.10;68.40;;;;;;8217348;28;20105;-84
2023/09/05 13:56:49;;;;;;;1.90;1.40;;;34.10;65.50;;;;;;8230128;28;20031;-84
2023/09/05 14:00:49;;;;;;;2.88;1.42;;;33.40;63.60;;;;;;8220095;28;20114;-88
2023/09/05 14:04:52;;;;;;;2.28;1.60;;;33.20;66.60;;;;;;8281209;23;20046;-81
2023/09/05 14:08:52;;;;;;;2.88;1.70;;;34.60;68.30;;;;;;8272077;28;20025;-82
2023/09/05 14:12:53;;;;;;;2.47;1.70;;;35.20;65.20;;;;;;8251945;28;20030;-82
2023/09/05 14:16:55;;;;;;;2.72;1.50;;;33.90;68.30;;;;;;8240410;28;20084;-81
2023/09/05 14:20:56;;;;;;;3.60;1.55;;;34.40;65.30;;;;;;8234527;28;20033;-81
2023/09/05 14:24:56;;;;;;;3.38;1.77;;;34.80;63.60;;;;;;8237254;28;20446;-81
2023/09/05 14:29:00;;;;;;;3.83;1.75;;;34.00;67.60;;;;;;8234051;28;20069;-82
2023/09/05 14:33:01;;;;;;;2.30;1.88;;;33.50;67.80;;;;;;8241032;28;20033;-79
2023/09/05 14:37:03;;;;;;;1.90;1.40;;;33.70;68.00;;;;;;8254070;28;20537;-81
2023/09/05 14:41:03;;;;;;;2.22;1.80;;;33.80;66.60;;;;;;8240421;28;20375;-81
2023/09/05 14:45:05;;;;;;;2.50;1.98;;;32.80;69.90;;;;;;8240399;28;20026;-81
2023/09/05 14:49:06;;;;;;;4.53;2.00;;;33.60;68.60;;;;;;8228264;28;20513;-81
2023/09/05 14:53:06;;;;;;;4.15;1.60;;;32.20;71.50;;;;;;8242831;28;20030;-82
2023/09/05 14:57:07;;;;;;;3.22;1.70;;;32.00;73.20;;;;;;8245588;28;20023;-82
2023/09/05 15:01:08;;;;;;;2.92;1.85;;;32.70;70.70;;;;;;8235003;28;20062;-81
2023/09/05 15:05:09;;;;;;;2.72;1.60;;;32.10;72.10;;;;;;8238323;28;20031;-81
2023/09/05 15:09:12;;;;;;;2.92;1.77;;;29.00;81.80;;;;;;8233140;28;20113;-81
2023/09/05 15:13:12;;;;;;;2.42;1.90;;;27.10;90.50;;;;;;8233078;28;20482;-81
2023/09/05 15:17:13;;;;;;;3.65;1.92;;;26.20;92.10;;;;;;8235550;28;20031;-81
2023/09/05 15:21:13;;;;;;;2.95;1.65;;;25.70;91.30;;;;;;8244197;28;20022;-81
2023/09/05 15:25:16;;;;;;;3.50;1.77;;;25.30;91.80;;;;;;8232521;28;20023;-81
2023/09/05 15:29:17;;;;;;;3.25;1.92;;;25.20;92.90;;;;;;8225014;28;20022;-80
2023/09/05 15:33:17;;;;;;;3.72;1.83;;;26.30;91.80;;;;;;8233329;28;20047;-81
2023/09/05 15:37:18;;;;;;;2.53;1.70;;;27.00;89.30;;;;;;8229321;28;20038;-81
2023/09/05 15:41:18;;;;;;;3.35;1.85;;;27.60;87.10;;;;;;8230879;28;20031;-81
2023/09/05 15:45:19;;;;;;;2.92;1.75;;;28.20;84.70;;;;;;8232840;28;20129;-81
2023/09/05 15:49:20;;;;;;;2.30;1.60;;;29.00;83.30;;;;;;8249869;28;20027;-82
2023/09/05 15:53:20;;;;;;;3.78;1.80;;;29.60;81.30;;;;;;8238657;28;20046;-82
2023/09/05 15:57:21;;;;;;;2.60;2.00;;;30.00;77.90;;;;;;8238762;28;20027;-81
2023/09/05 16:01:22;;;;;;;7.43;1.92;;;28.70;83.80;;;;;;8241521;28;20490;-82
2023/09/05 16:05:22;;;;;;;3.47;2.15;;;28.30;80.90;;;;;;8241912;28;20037;-81
2023/09/05 16:09:23;;;;;;;4.10;2.15;;;26.30;85.70;;;;;;8245867;28;20011;-80
2023/09/05 16:13:23;;;;;;;2.60;1.90;;;25.10;90.30;;;;;;8257160;28;20074;-81
2023/09/05 16:17:24;;;;;;;4.38;2.13;;;24.40;91.20;;;;;;8226985;28;20023;-81
2023/09/05 16:21:27;;;;;;;3.33;2.10;;;24.00;92.30;;;;;;8229801;28;20037;-81
2023/09/05 16:25:28;;;;;;;2.78;2.42;;;23.90;92.50;;;;;;8233836;28;20019;-81
2023/09/05 16:29:28;;;;;;;5.05;2.20;;;23.60;93.70;;;;;;8231912;28;20087;-81
2023/09/05 16:33:29;;;;;;;2.65;1.98;;;23.40;93.20;;;;;;8240948;28;20045;-81
2023/09/05 16:37:30;;;;;;;2.85;2.03;;;23.20;93.50;;;;;;8248904;28;20023;-81
2023/09/05 16:41:31;;;;;;;3.70;2.28;;;23.20;93.90;;;;;;8238789;28;20080;-81
2023/09/05 16:45:32;;;;;;;3.97;2.40;;;23.00;93.70;;;;;;8255212;28;20041;-80
2023/09/05 16:49:33;;;;;;;3.22;2.05;;;22.70;95.20;;;;;;8252227;28;20014;-80
2023/09/05 16:53:33;;;;;;;2.55;1.92;;;22.40;96.50;;;;;;8245933;28;20149;-80
2023/09/05 16:57:34;;;;;;;7.88;2.67;;;22.10;96.70;;;;;;8254453;28;20026;-81
2023/09/05 17:01:34;;;;;;;2.90;2.03;;;21.80;96.90;;;;;;8248521;28;20740;-81
2023/09/05 17:05:38;;;;;;;5.82;2.40;;;21.70;97.50;;;;;;8249079;28;20110;-81
2023/09/05 17:09:39;;;;;;;3.85;2.10;;;21.50;98.50;;;;;;8228194;28;20102;-80
2023/09/05 17:13:39;;;;;;;4.05;2.50;;;21.30;98.70;;;;;;8236656;28;20034;-80
2023/09/05 17:17:41;;;;;;;3.58;2.42;;;21.20;98.80;;;;;;8225826;28;20038;-81
2023/09/05 17:21:41;;;;;;;3.53;2.53;;;20.90;99.90;;;;;;8247274;28;20125;-81
2023/09/05 17:25:42;;;;;;;5.53;2.20;;;20.80;99.90;;;;;;8252680;28;20505;-81
2023/09/05 17:29:42;;;;;;;3.35;2.45;;;20.60;99.90;;;;;;8233080;28;20058;-80
2023/09/05 17:33:44;;;;;;;3.92;2.30;;;20.30;99.90;;;;;;8250825;28;20038;-81
2023/09/05 17:37:44;;;;;;;2.88;2.35;;;20.00;99.90;;;;;;8228939;28;20023;-81
2023/09/05 17:41:45;;;;;;;5.03;2.83;;;19.60;99.90;;;;;;8247498;28;20035;-81
2023/09/05 17:45:45;;;;;;;3.60;2.55;;;19.20;99.90;;;;;;8241482;28;20397;-81
2023/09/05 17:49:46;;;;;;;4.15;2.40;;;19.10;99.90;;;;;;8271243;28;20030;-81
2023/09/05 17:53:46;;;;;;;5.90;3.13;;;19.10;99.90;;;;;;8243762;28;20119;-81
2023/09/05 17:57:48;;;;;;;5.03;3.05;;;18.90;99.90;;;;;;8240727;28;20029;-81
2023/09/05 18:01:50;;;;;;;5.55;2.63;;;18.70;99.90;;;;;;8249916;28;20446;-80
2023/09/05 18:05:51;;;;;;;6.50;2.80;;;18.60;99.90;;;;;;8234880;28;20462;-81
2023/09/05 18:09:53;;;;;;;4.15;2.50;;;18.40;99.90;;;;;;8237580;28;20027;-81
2023/09/05 18:13:55;;;;;;;3.40;2.38;;;18.10;99.90;;;;;;8232372;28;20739;-82
2023/09/05 18:17:56;;;;;;;4.47;2.85;;;17.80;99.90;;;;;;8257212;28;20394;-80
2023/09/05 18:21:56;;;;;;;3.67;2.65;;;17.50;99.90;;;;;;8237257;28;20058;-81
2023/09/05 18:26:03;;;;;;;4.78;2.70;;;17.20;99.90;;;;;;8226819;28;20026;-82
2023/09/05 18:30:05;;;;;;;4.70;2.80;;;17.10;99.90;;;;;;8248549;28;20023;-80
2023/09/05 18:34:05;;;;;;;4.45;2.53;;;16.90;99.90;;;;;;8231311;28;20469;-81
2023/09/05 18:38:06;;;;;;;3.95;2.90;;;16.70;99.90;;;;;;8224833;28;20132;-81
2023/09/05 18:42:07;;;;;;;4.43;2.90;;;16.70;99.90;;;;;;8240776;28;20035;-81
2023/09/05 18:46:12;;;;;;;5.97;2.90;;;16.60;99.90;;;;;;8241893;28;20105;-81
2023/09/05 18:50:13;;;;;;;3.83;2.95;;;16.40;99.90;;;;;;8254703;28;20085;-81
2023/09/05 18:54:14;;;;;;;4.57;3.00;;;16.20;99.90;;;;;;8238730;28;20467;-81
2023/09/05 18:58:14;;;;;;;6.25;3.10;;;16.10;99.90;;;;;;8241525;28;20034;-81
2023/09/05 19:02:15;;;;;;;6.18;3.38;;;15.80;99.90;;;;;;8245812;28;20410;-81
2023/09/05 19:06:16;;;;;;;6.90;3.42;;;15.80;99.90;;;;;;8242178;28;20045;-81
2023/09/05 19:10:16;;;;;;;5.68;3.10;;;15.70;99.90;;;;;;8234361;28;20041;-81
2023/09/05 19:14:17;;;;;;;7.30;3.03;;;15.60;99.90;;;;;;8231262;28;20026;-81
2023/09/05 19:18:17;;;;;;;4.22;3.03;;;15.50;99.90;;;;;;8230771;28;20129;-81
2023/09/05 19:22:18;;;;;;;6.10;3.75;;;15.40;99.90;;;;;;8235469;28;20034;-81
2023/09/05 19:26:19;;;;;;;5.70;3.30;;;15.40;99.90;;;;;;8234184;28;20509;-81
2023/09/05 19:30:20;;;;;;;7.93;3.60;;;15.30;99.90;;;;;;8241220;28;20073;-81
2023/09/05 19:34:22;;;;;;;5.50;3.60;;;15.30;99.90;;;;;;8247636;28;20037;-81
2023/09/05 19:38:23;;;;;;;6.47;3.97;;;15.40;99.90;;;;;;8224672;28;20030;-81
2023/09/05 19:42:23;;;;;;;5.82;3.72;;;15.30;99.90;;;;;;8242631;28;20427;-81
2023/09/05 19:46:24;;;;;;;4.65;3.60;;;15.20;99.90;;;;;;8244192;28;20979;-81
2023/09/05 19:50:27;;;;;;;8.48;4.10;;;15.20;99.90;;;;;;8264412;28;20027;-81
2023/09/05 19:54:29;;;;;;;7.18;3.80;;;15.10;99.90;;;;;;8242738;28;20117;-81
2023/09/05 19:58:31;;;;;;;6.10;3.53;;;15.20;99.90;;;;;;8233482;28;20102;-81
2023/09/05 20:02:32;;;;;;;4.50;3.38;;;15.30;99.90;;;;;;8237071;28;20030;-81
2023/09/05 20:06:32;;;;;;;5.18;3.47;;;15.20;99.90;;;;;;8227604;28;20026;-81
2023/09/05 20:10:33;;;;;;;5.53;3.53;;;15.00;99.90;;;;;;8232925;28;20026;-81
2023/09/05 20:14:34;;;;;;;4.75;3.80;;;15.10;99.90;;;;;;8230477;28;20019;-81
2023/09/05 20:18:35;;;;;;;6.80;3.80;;;15.00;99.90;;;;;;8223503;28;20019;-81
2023/09/05 20:22:35;;;;;;;6.97;3.97;;;14.90;99.90;;;;;;8232291;28;20616;-81
2023/09/05 20:26:36;;;;;;;6.18;3.60;;;14.80;99.90;;;;;;8230838;28;20026;-81
2023/09/05 20:30:36;;;;;;;6.63;3.85;;;14.60;99.90;;;;;;8237569;28;20033;-81
2023/09/05 20:34:37;;;;;;;4.60;3.60;;;14.50;99.90;;;;;;8236389;28;20031;-81
2023/09/05 20:38:38;;;;;;;6.32;4.00;;;14.50;99.90;;;;;;8250557;28;20077;-81
2023/09/05 20:42:38;;;;;;;6.60;4.05;;;14.40;99.90;;;;;;8259209;28;20053;-81
2023/09/05 20:46:40;;;;;;;5.22;4.10;;;14.20;99.90;;;;;;8249922;28;20057;-83
2023/09/05 20:50:41;;;;;;;6.38;4.38;;;14.10;99.90;;;;;;8251164;28;20019;-81
2023/09/05 20:54:41;;;;;;;6.75;4.28;;;13.90;99.90;;;;;;8251027;28;20027;-81
2023/09/05 20:58:45;;;;;;;6.63;4.30;;;13.80;99.90;;;;;;8248762;28;20069;-81
2023/09/05 21:02:45;;;;;;;5.03;4.15;;;13.70;99.90;;;;;;8256419;28;20026;-81
2023/09/05 21:06:46;;;;;;;7.18;4.15;;;13.60;99.90;;;;;;8256340;28;20018;-81
2023/09/05 21:10:46;;;;;;;6.82;4.38;;;13.50;99.90;;;;;;8257199;28;20438;-81
2023/09/05 21:14:48;;;;;;;7.10;4.15;;;13.40;99.90;;;;;;8243621;28;20073;-81
2023/09/05 21:18:50;;;;;;;5.63;4.05;;;13.30;99.90;;;;;;8244899;28;20018;-81
2023/09/05 21:22:51;;;;;;;5.30;4.40;;;13.20;99.90;;;;;;8262519;28;20129;-81
2023/09/05 21:26:52;;;;;;;6.78;4.65;;;13.10;99.90;;;;;;8263394;28;20030;-81